sensor_id;sensor_type;location;lat;lon;timestamp;pressure;altitude;pressure_sealevel;temperature;humidity
6208;BME280;3137;51.550;7.060;2024-01-27T00:00:11;103081.34;;;3.13;88.24
6208;BME280;3137;51.550;7.060;2024-01-27T00:02:38;103088.53;;;3.08;88.09
6208;BME280;3137;51.550;7.060;2024-01-27T00:05:05;103092.19;;;3.04;88.60
6208;BME280;3137;51.550;7.060;2024-01-27T00:07:31;103088.94;;;3.23;88.59
6208;BME280;3137;51.550;7.060;2024-01-27T00:09:58;103093.41;;;3.21;88.19
6208;BME280;3137;51.550;7.060;2024-01-27T00:12:25;103095.94;;;3.26;88.65
6208;BME280;3137;51.550;7.060;2024-01-27T00:14:52;103094.19;;;3.25;88.71
6208;BME280;3137;51.550;7.060;2024-01-27T00:17:18;103094.34;;;3.19;88.88
6208;BME280;3137;51.550;7.060;2024-01-27T00:19:52;103090.94;;;3.15;88.50
6208;BME280;3137;51.550;7.060;2024-01-27T00:22:19;103097.97;;;3.16;88.83
6208;BME280;3137;51.550;7.060;2024-01-27T00:24:47;103089.94;;;3.19;88.34
6208;BME280;3137;51.550;7.060;2024-01-27T00:27:13;103095.31;;;3.16;88.33
6208;BME280;3137;51.550;7.060;2024-01-27T00:29:40;103097.88;;;3.19;88.47
6208;BME280;3137;51.550;7.060;2024-01-27T00:32:06;103108.66;;;3.13;88.50
6208;BME280;3137;51.550;7.060;2024-01-27T00:34:33;103109.78;;;3.05;88.72
6208;BME280;3137;51.550;7.060;2024-01-27T00:36:59;103115.94;;;3.05;88.68
6208;BME280;3137;51.550;7.060;2024-01-27T00:39:26;103126.44;;;3.07;88.70
6208;BME280;3137;51.550;7.060;2024-01-27T00:41:52;103130.09;;;3.03;88.22
6208;BME280;3137;51.550;7.060;2024-01-27T00:44:21;103129.94;;;3.07;88.44
6208;BME280;3137;51.550;7.060;2024-01-27T00:46:47;103132.63;;;3.06;88.46
6208;BME280;3137;51.550;7.060;2024-01-27T00:49:14;103143.69;;;2.89;88.53
6208;BME280;3137;51.550;7.060;2024-01-27T00:51:40;103146.81;;;3.03;88.60
6208;BME280;3137;51.550;7.060;2024-01-27T00:54:07;103138.91;;;3.02;88.38
6208;BME280;3137;51.550;7.060;2024-01-27T00:56:33;103144.28;;;2.99;87.87
6208;BME280;3137;51.550;7.060;2024-01-27T00:59:00;103143.53;;;2.95;88.38
6208;BME280;3137;51.550;7.060;2024-01-27T01:01:26;103143.53;;;2.95;88.08
6208;BME280;3137;51.550;7.060;2024-01-27T01:03:53;103142.88;;;2.87;88.24
6208;BME280;3137;51.550;7.060;2024-01-27T01:06:19;103140.97;;;2.92;88.44
6208;BME280;3137;51.550;7.060;2024-01-27T01:08:46;103129.75;;;2.84;88.82
6208;BME280;3137;51.550;7.060;2024-01-27T01:11:13;103136.63;;;2.90;88.57
6208;BME280;3137;51.550;7.060;2024-01-27T01:13:39;103147.28;;;2.87;88.42
6208;BME280;3137;51.550;7.060;2024-01-27T01:16:06;103139.41;;;2.85;88.59
6208;BME280;3137;51.550;7.060;2024-01-27T01:18:34;103135.94;;;2.83;89.15
6208;BME280;3137;51.550;7.060;2024-01-27T01:21:00;103135.84;;;2.86;88.77
6208;BME280;3137;51.550;7.060;2024-01-27T01:23:27;103132.31;;;2.87;88.94
6208;BME280;3137;51.550;7.060;2024-01-27T01:25:53;103138.63;;;2.82;88.96
6208;BME280;3137;51.550;7.060;2024-01-27T01:28:20;103135.06;;;2.84;88.60
6208;BME280;3137;51.550;7.060;2024-01-27T01:30:46;103136.88;;;2.81;88.97
6208;BME280;3137;51.550;7.060;2024-01-27T01:33:12;103137.75;;;2.81;88.73
6208;BME280;3137;51.550;7.060;2024-01-27T01:35:39;103147.38;;;2.84;88.56
6208;BME280;3137;51.550;7.060;2024-01-27T01:38:06;103137.00;;;2.76;88.81
6208;BME280;3137;51.550;7.060;2024-01-27T01:40:32;103151.06;;;2.78;88.79
6208;BME280;3137;51.550;7.060;2024-01-27T01:42:59;103146.78;;;2.72;88.79
6208;BME280;3137;51.550;7.060;2024-01-27T01:45:25;103135.19;;;2.80;88.44
6208;BME280;3137;51.550;7.060;2024-01-27T01:47:52;103136.31;;;2.69;89.08
6208;BME280;3137;51.550;7.060;2024-01-27T01:50:18;103138.94;;;2.71;88.68
6208;BME280;3137;51.550;7.060;2024-01-27T01:52:47;103143.38;;;2.69;88.34
6208;BME280;3137;51.550;7.060;2024-01-27T01:55:15;103139.13;;;2.63;89.39
6208;BME280;3137;51.550;7.060;2024-01-27T01:57:43;103149.78;;;2.60;88.69
6208;BME280;3137;51.550;7.060;2024-01-27T02:00:10;103139.34;;;2.56;89.23
6208;BME280;3137;51.550;7.060;2024-01-27T02:02:38;103144.25;;;2.69;88.79
6208;BME280;3137;51.550;7.060;2024-01-27T02:05:05;103152.31;;;2.63;89.02
6208;BME280;3137;51.550;7.060;2024-01-27T02:07:31;103145.34;;;2.62;89.00
6208;BME280;3137;51.550;7.060;2024-01-27T02:09:58;103149.69;;;2.63;89.14
6208;BME280;3137;51.550;7.060;2024-01-27T02:12:24;103154.19;;;2.60;89.14
6208;BME280;3137;51.550;7.060;2024-01-27T02:14:51;103151.50;;;2.63;89.04
6208;BME280;3137;51.550;7.060;2024-01-27T02:17:17;103149.13;;;2.52;89.52
6208;BME280;3137;51.550;7.060;2024-01-27T02:19:44;103150.88;;;2.52;89.64
6208;BME280;3137;51.550;7.060;2024-01-27T02:22:10;103159.78;;;2.49;89.92
6208;BME280;3137;51.550;7.060;2024-01-27T02:24:37;103145.91;;;2.41;89.62
6208;BME280;3137;51.550;7.060;2024-01-27T02:27:03;103150.25;;;2.42;90.21
6208;BME280;3137;51.550;7.060;2024-01-27T02:29:30;103146.63;;;2.46;90.23
6208;BME280;3137;51.550;7.060;2024-01-27T02:31:56;103146.69;;;2.45;90.18
6208;BME280;3137;51.550;7.060;2024-01-27T02:34:23;103147.25;;;2.56;89.98
6208;BME280;3137;51.550;7.060;2024-01-27T02:36:49;103144.75;;;2.51;89.91
6208;BME280;3137;51.550;7.060;2024-01-27T02:39:16;103140.38;;;2.50;89.60
6208;BME280;3137;51.550;7.060;2024-01-27T02:41:42;103146.72;;;2.43;90.03
6208;BME280;3137;51.550;7.060;2024-01-27T02:44:09;103150.31;;;2.41;89.84
6208;BME280;3137;51.550;7.060;2024-01-27T02:46:35;103152.13;;;2.39;89.69
6208;BME280;3137;51.550;7.060;2024-01-27T02:49:02;103151.41;;;2.32;90.11
6208;BME280;3137;51.550;7.060;2024-01-27T02:51:28;103142.44;;;2.39;89.77
6208;BME280;3137;51.550;7.060;2024-01-27T02:53:55;103148.72;;;2.34;90.32
6208;BME280;3137;51.550;7.060;2024-01-27T02:56:21;103155.84;;;2.30;89.57
6208;BME280;3137;51.550;7.060;2024-01-27T02:58:48;103144.53;;;2.25;89.57
6208;BME280;3137;51.550;7.060;2024-01-27T03:01:14;103156.97;;;2.21;90.08
6208;BME280;3137;51.550;7.060;2024-01-27T03:03:41;103152.47;;;2.25;90.63
6208;BME280;3137;51.550;7.060;2024-01-27T03:06:07;103154.25;;;2.24;90.46
6208;BME280;3137;51.550;7.060;2024-01-27T03:08:34;103148.13;;;2.24;90.60
6208;BME280;3137;51.550;7.060;2024-01-27T03:11:00;103154.38;;;2.20;90.39
6208;BME280;3137;51.550;7.060;2024-01-27T03:13:27;103148.25;;;2.18;90.28
6208;BME280;3137;51.550;7.060;2024-01-27T03:15:54;103159.88;;;2.11;90.11
6208;BME280;3137;51.550;7.060;2024-01-27T03:18:20;103149.53;;;2.03;90.35
6208;BME280;3137;51.550;7.060;2024-01-27T03:20:47;103147.66;;;2.07;90.33
6208;BME280;3137;51.550;7.060;2024-01-27T03:23:14;103144.34;;;1.99;90.44
6208;BME280;3137;51.550;7.060;2024-01-27T03:25:40;103146.94;;;2.00;90.84
6208;BME280;3137;51.550;7.060;2024-01-27T03:28:07;103153.38;;;1.89;90.80
6208;BME280;3137;51.550;7.060;2024-01-27T03:30:33;103147.34;;;1.83;91.29
6208;BME280;3137;51.550;7.060;2024-01-27T03:32:59;103138.41;;;1.91;92.02
6208;BME280;3137;51.550;7.060;2024-01-27T03:35:26;103153.25;;;1.95;91.89
6208;BME280;3137;51.550;7.060;2024-01-27T03:37:53;103151.63;;;1.89;91.78
6208;BME280;3137;51.550;7.060;2024-01-27T03:40:20;103143.50;;;1.97;91.99
6208;BME280;3137;51.550;7.060;2024-01-27T03:42:46;103143.31;;;2.04;91.80
6208;BME280;3137;51.550;7.060;2024-01-27T03:45:13;103148.75;;;1.98;91.79
6208;BME280;3137;51.550;7.060;2024-01-27T03:47:39;103149.53;;;2.03;91.91
6208;BME280;3137;51.550;7.060;2024-01-27T03:50:06;103156.38;;;2.10;91.63
6208;BME280;3137;51.550;7.060;2024-01-27T03:52:38;103166.28;;;2.01;91.29
6208;BME280;3137;51.550;7.060;2024-01-27T03:55:05;103154.81;;;2.02;91.72
6208;BME280;3137;51.550;7.060;2024-01-27T03:57:31;103167.06;;;2.04;91.21
6208;BME280;3137;51.550;7.060;2024-01-27T03:59:58;103173.28;;;2.02;91.19
6208;BME280;3137;51.550;7.060;2024-01-27T04:02:24;103174.38;;;1.93;91.12
6208;BME280;3137;51.550;7.060;2024-01-27T04:04:51;103171.75;;;1.92;91.28
6208;BME280;3137;51.550;7.060;2024-01-27T04:07:18;103169.88;;;1.97;91.48
6208;BME280;3137;51.550;7.060;2024-01-27T04:09:44;103176.31;;;1.87;91.60
6208;BME280;3137;51.550;7.060;2024-01-27T04:12:11;103175.34;;;1.89;91.84
6208;BME280;3137;51.550;7.060;2024-01-27T04:14:37;103186.91;;;1.83;92.01
6208;BME280;3137;51.550;7.060;2024-01-27T04:17:04;103178.69;;;1.96;92.20
6208;BME280;3137;51.550;7.060;2024-01-27T04:19:30;103178.25;;;2.14;91.96
6208;BME280;3137;51.550;7.060;2024-01-27T04:21:57;103185.38;;;2.12;91.80
6208;BME280;3137;51.550;7.060;2024-01-27T04:24:23;103182.75;;;2.10;91.42
6208;BME280;3137;51.550;7.060;2024-01-27T04:26:49;103183.09;;;1.97;91.69
6208;BME280;3137;51.550;7.060;2024-01-27T04:29:16;103179.47;;;2.01;91.96
6208;BME280;3137;51.550;7.060;2024-01-27T04:31:43;103174.25;;;1.99;91.87
6208;BME280;3137;51.550;7.060;2024-01-27T04:34:09;103185.63;;;2.00;91.89
6208;BME280;3137;51.550;7.060;2024-01-27T04:36:36;103171.41;;;2.07;92.29
6208;BME280;3137;51.550;7.060;2024-01-27T04:39:03;103177.34;;;2.16;91.79
6208;BME280;3137;51.550;7.060;2024-01-27T04:41:30;103185.38;;;2.12;91.35
6208;BME280;3137;51.550;7.060;2024-01-27T04:43:57;103188.03;;;2.10;91.16
6208;BME280;3137;51.550;7.060;2024-01-27T04:46:25;103178.34;;;2.11;91.26
6208;BME280;3137;51.550;7.060;2024-01-27T04:48:51;103180.09;;;2.12;90.92
6208;BME280;3137;51.550;7.060;2024-01-27T04:51:18;103189.69;;;2.14;90.87
6208;BME280;3137;51.550;7.060;2024-01-27T04:53:44;103179.25;;;2.10;91.30
6208;BME280;3137;51.550;7.060;2024-01-27T04:56:11;103182.75;;;2.10;91.02
6208;BME280;3137;51.550;7.060;2024-01-27T04:58:39;103193.41;;;2.07;90.72
6208;BME280;3137;51.550;7.060;2024-01-27T05:01:05;103187.38;;;2.01;91.44
6208;BME280;3137;51.550;7.060;2024-01-27T05:03:32;103186.41;;;2.05;90.96
6208;BME280;3137;51.550;7.060;2024-01-27T05:05:59;103185.63;;;2.01;91.15
6208;BME280;3137;51.550;7.060;2024-01-27T05:08:26;103192.63;;;2.02;91.21
6208;BME280;3137;51.550;7.060;2024-01-27T05:10:52;103177.59;;;2.06;91.29
6208;BME280;3137;51.550;7.060;2024-01-27T05:13:23;103182.88;;;2.04;91.16
6208;BME280;3137;51.550;7.060;2024-01-27T05:15:50;103180.13;;;2.09;91.23
6208;BME280;3137;51.550;7.060;2024-01-27T05:18:16;103176.94;;;1.96;91.41
6208;BME280;3137;51.550;7.060;2024-01-27T05:20:43;103181.22;;;2.02;90.99
6208;BME280;3137;51.550;7.060;2024-01-27T05:23:09;103181.31;;;1.97;90.97
6208;BME280;3137;51.550;7.060;2024-01-27T05:25:35;103176.75;;;2.04;91.01
6208;BME280;3137;51.550;7.060;2024-01-27T05:28:02;103170.56;;;2.05;91.14
6208;BME280;3137;51.550;7.060;2024-01-27T05:30:28;103177.63;;;2.04;90.71
6208;BME280;3137;51.550;7.060;2024-01-27T05:32:55;103171.75;;;1.92;91.44
6208;BME280;3137;51.550;7.060;2024-01-27T05:35:22;103170.19;;;1.84;91.53
6208;BME280;3137;51.550;7.060;2024-01-27T05:37:48;103184.44;;;1.76;92.01
6208;BME280;3137;51.550;7.060;2024-01-27T05:40:15;103177.50;;;1.72;92.00
6208;BME280;3137;51.550;7.060;2024-01-27T05:42:41;103178.50;;;1.66;92.22
6208;BME280;3137;51.550;7.060;2024-01-27T05:45:09;103184.06;;;1.54;92.13
6208;BME280;3137;51.550;7.060;2024-01-27T05:47:36;103197.34;;;1.50;92.13
6208;BME280;3137;51.550;7.060;2024-01-27T05:50:03;103194.75;;;1.48;92.48
6208;BME280;3137;51.550;7.060;2024-01-27T05:52:30;103195.38;;;1.59;92.22
6208;BME280;3137;51.550;7.060;2024-01-27T05:54:57;103188.44;;;1.55;92.77
6208;BME280;3137;51.550;7.060;2024-01-27T05:57:23;103183.97;;;1.57;92.21
6208;BME280;3137;51.550;7.060;2024-01-27T05:59:49;103195.69;;;1.46;92.24
6208;BME280;3137;51.550;7.060;2024-01-27T06:02:16;103185.38;;;1.35;92.03
6208;BME280;3137;51.550;7.060;2024-01-27T06:04:44;103179.16;;;1.37;92.31
6208;BME280;3137;51.550;7.060;2024-01-27T06:07:10;103195.56;;;1.50;92.04
6208;BME280;3137;51.550;7.060;2024-01-27T06:09:37;103190.56;;;1.40;92.00
6208;BME280;3137;51.550;7.060;2024-01-27T06:12:05;103201.31;;;1.29;92.22
6208;BME280;3137;51.550;7.060;2024-01-27T06:14:31;103214.56;;;1.26;92.45
6208;BME280;3137;51.550;7.060;2024-01-27T06:16:58;103204.13;;;1.20;92.50
6208;BME280;3137;51.550;7.060;2024-01-27T06:19:24;103203.34;;;1.15;92.75
6208;BME280;3137;51.550;7.060;2024-01-27T06:21:51;103204.22;;;1.15;92.47
6208;BME280;3137;51.550;7.060;2024-01-27T06:24:17;103200.91;;;1.06;92.41
6208;BME280;3137;51.550;7.060;2024-01-27T06:26:43;103197.56;;;0.98;92.54
6208;BME280;3137;51.550;7.060;2024-01-27T06:29:10;103199.34;;;0.96;92.62
6208;BME280;3137;51.550;7.060;2024-01-27T06:31:37;103194.09;;;0.94;92.76
6208;BME280;3137;51.550;7.060;2024-01-27T06:34:03;103204.63;;;0.96;93.01
6208;BME280;3137;51.550;7.060;2024-01-27T06:36:30;103212.53;;;0.94;92.80
6208;BME280;3137;51.550;7.060;2024-01-27T06:38:57;103215.72;;;1.11;92.99
6208;BME280;3137;51.550;7.060;2024-01-27T06:41:23;103214.88;;;1.09;93.21
6208;BME280;3137;51.550;7.060;2024-01-27T06:43:50;103207.69;;;1.19;93.43
6208;BME280;3137;51.550;7.060;2024-01-27T06:46:16;103209.28;;;1.24;93.23
6208;BME280;3137;51.550;7.060;2024-01-27T06:48:42;103211.06;;;1.24;93.78
6208;BME280;3137;51.550;7.060;2024-01-27T06:51:10;103210.00;;;1.32;93.70
6208;BME280;3137;51.550;7.060;2024-01-27T06:53:36;103221.13;;;1.47;93.31
6208;BME280;3137;51.550;7.060;2024-01-27T06:56:03;103227.22;;;1.49;92.84
6208;BME280;3137;51.550;7.060;2024-01-27T06:58:30;103228.09;;;1.49;92.85
6208;BME280;3137;51.550;7.060;2024-01-27T07:00:56;103227.31;;;1.46;92.39
6208;BME280;3137;51.550;7.060;2024-01-27T07:03:23;103234.22;;;1.51;92.67
6208;BME280;3137;51.550;7.060;2024-01-27T07:05:50;103232.97;;;1.69;92.48
6208;BME280;3137;51.550;7.060;2024-01-27T07:08:16;103227.53;;;1.75;91.89
6208;BME280;3137;51.550;7.060;2024-01-27T07:10:43;103247.06;;;1.66;92.14
6208;BME280;3137;51.550;7.060;2024-01-27T07:13:09;103235.88;;;1.55;92.27
6208;BME280;3137;51.550;7.060;2024-01-27T07:15:36;103231.34;;;1.62;92.24
6208;BME280;3137;51.550;7.060;2024-01-27T07:18:04;103251.63;;;1.58;92.58
6208;BME280;3137;51.550;7.060;2024-01-27T07:20:31;103245.50;;;1.58;92.52
6208;BME280;3137;51.550;7.060;2024-01-27T07:22:57;103259.72;;;1.51;92.66
6208;BME280;3137;51.550;7.060;2024-01-27T07:25:23;103259.00;;;1.43;92.81
6208;BME280;3137;51.550;7.060;2024-01-27T07:27:50;103258.81;;;1.52;92.83
6208;BME280;3137;51.550;7.060;2024-01-27T07:30:16;103258.06;;;1.45;92.66
6208;BME280;3137;51.550;7.060;2024-01-27T07:32:43;103257.25;;;1.42;92.99
6208;BME280;3137;51.550;7.060;2024-01-27T07:35:10;103253.59;;;1.49;93.11
6208;BME280;3137;51.550;7.060;2024-01-27T07:37:37;103258.94;;;1.46;93.04
6208;BME280;3137;51.550;7.060;2024-01-27T07:40:05;103258.06;;;1.45;93.29
6208;BME280;3137;51.550;7.060;2024-01-27T07:42:31;103265.97;;;1.45;93.09
6208;BME280;3137;51.550;7.060;2024-01-27T07:44:58;103269.53;;;1.44;93.05
6208;BME280;3137;51.550;7.060;2024-01-27T07:47:24;103268.66;;;1.44;93.06
6208;BME280;3137;51.550;7.060;2024-01-27T07:49:51;103272.19;;;1.41;92.81
6208;BME280;3137;51.550;7.060;2024-01-27T07:52:19;103273.22;;;1.34;92.97
6208;BME280;3137;51.550;7.060;2024-01-27T07:54:45;103264.63;;;1.26;92.99
6208;BME280;3137;51.550;7.060;2024-01-27T07:57:12;103263.75;;;1.25;93.02
6208;BME280;3137;51.550;7.060;2024-01-27T07:59:38;103265.53;;;1.23;93.09
6208;BME280;3137;51.550;7.060;2024-01-27T08:02:05;103268.16;;;1.23;93.15
6208;BME280;3137;51.550;7.060;2024-01-27T08:04:32;103267.25;;;1.24;93.18
6208;BME280;3137;51.550;7.060;2024-01-27T08:06:59;103276.03;;;1.25;93.31
6208;BME280;3137;51.550;7.060;2024-01-27T08:09:32;103277.53;;;1.40;93.24
6208;BME280;3137;51.550;7.060;2024-01-27T08:11:59;103273.97;;;1.41;92.74
6208;BME280;3137;51.550;7.060;2024-01-27T08:14:26;103290.66;;;1.41;92.69
6208;BME280;3137;51.550;7.060;2024-01-27T08:16:52;103284.41;;;1.47;92.79
6208;BME280;3137;51.550;7.060;2024-01-27T08:19:23;103281.56;;;1.56;92.88
6208;BME280;3137;51.550;7.060;2024-01-27T08:21:50;103281.47;;;1.60;93.00
6208;BME280;3137;51.550;7.060;2024-01-27T08:24:17;103281.34;;;1.66;93.00
6208;BME280;3137;51.550;7.060;2024-01-27T08:26:43;103289.84;;;1.79;93.00
6208;BME280;3137;51.550;7.060;2024-01-27T08:29:11;103280.84;;;1.91;92.82
6208;BME280;3137;51.550;7.060;2024-01-27T08:31:37;103276.94;;;2.07;92.54
6208;BME280;3137;51.550;7.060;2024-01-27T08:34:05;103278.63;;;2.09;92.53
6208;BME280;3137;51.550;7.060;2024-01-27T08:36:31;103283.53;;;2.26;91.75
6208;BME280;3137;51.550;7.060;2024-01-27T08:39:00;103276.38;;;2.31;91.80
6208;BME280;3137;51.550;7.060;2024-01-27T08:41:26;103287.59;;;2.39;91.84
6208;BME280;3137;51.550;7.060;2024-01-27T08:43:55;103277.69;;;2.49;91.48
6208;BME280;3137;51.550;7.060;2024-01-27T08:46:21;103275.63;;;2.61;91.21
6208;BME280;3137;51.550;7.060;2024-01-27T08:48:48;103284.38;;;2.63;90.70
6208;BME280;3137;51.550;7.060;2024-01-27T08:51:15;103281.59;;;2.69;90.26
6208;BME280;3137;51.550;7.060;2024-01-27T08:53:43;103289.09;;;2.85;89.85
6208;BME280;3137;51.550;7.060;2024-01-27T08:56:15;103297.78;;;2.90;90.16
6208;BME280;3137;51.550;7.060;2024-01-27T08:58:44;103292.16;;;3.03;89.19
6208;BME280;3137;51.550;7.060;2024-01-27T09:01:11;103287.41;;;3.16;88.85
6208;BME280;3137;51.550;7.060;2024-01-27T09:03:41;103302.03;;;3.29;89.15
6208;BME280;3137;51.550;7.060;2024-01-27T09:06:07;103288.88;;;3.57;86.36
6208;BME280;3137;51.550;7.060;2024-01-27T09:08:34;103293.88;;;3.67;86.01
6208;BME280;3137;51.550;7.060;2024-01-27T09:11:02;103291.97;;;3.73;85.11
6208;BME280;3137;51.550;7.060;2024-01-27T09:13:28;103295.41;;;3.75;85.52
6208;BME280;3137;51.550;7.060;2024-01-27T09:15:57;103296.19;;;3.78;85.15
6208;BME280;3137;51.550;7.060;2024-01-27T09:18:23;103289.72;;;3.88;84.54
6208;BME280;3137;51.550;7.060;2024-01-27T09:20:53;103293.91;;;3.95;85.19
6208;BME280;3137;51.550;7.060;2024-01-27T09:23:19;103285.75;;;4.03;84.33
6208;BME280;3137;51.550;7.060;2024-01-27T09:25:46;103286.31;;;4.12;84.07
6208;BME280;3137;51.550;7.060;2024-01-27T09:28:12;103291.28;;;4.23;84.22
6208;BME280;3137;51.550;7.060;2024-01-27T09:30:40;103281.09;;;4.37;83.44
6208;BME280;3137;51.550;7.060;2024-01-27T09:33:06;103291.53;;;4.43;83.12
6208;BME280;3137;51.550;7.060;2024-01-27T09:35:33;103294.88;;;4.48;81.60
6208;BME280;3137;51.550;7.060;2024-01-27T09:37:59;103292.97;;;4.53;82.79
6208;BME280;3137;51.550;7.060;2024-01-27T09:40:26;103273.59;;;4.51;81.39
6208;BME280;3137;51.550;7.060;2024-01-27T09:42:53;103268.09;;;4.57;80.90
6208;BME280;3137;51.550;7.060;2024-01-27T09:45:23;103273.41;;;4.57;81.58
6208;BME280;3137;51.550;7.060;2024-01-27T09:47:51;103274.16;;;4.61;81.57
6208;BME280;3137;51.550;7.060;2024-01-27T09:50:18;103282.72;;;4.69;81.92
6208;BME280;3137;51.550;7.060;2024-01-27T09:52:45;103286.84;;;4.78;82.48
6208;BME280;3137;51.550;7.060;2024-01-27T09:55:11;103287.44;;;4.86;83.10
6208;BME280;3137;51.550;7.060;2024-01-27T09:57:38;103288.75;;;4.99;82.46
6208;BME280;3137;51.550;7.060;2024-01-27T10:00:10;103297.28;;;5.09;81.79
6208;BME280;3137;51.550;7.060;2024-01-27T10:02:43;103292.41;;;5.21;80.57
6208;BME280;3137;51.550;7.060;2024-01-27T10:05:11;103290.34;;;5.29;79.60
6208;BME280;3137;51.550;7.060;2024-01-27T10:07:37;103290.94;;;5.37;79.77
6208;BME280;3137;51.550;7.060;2024-01-27T10:10:04;103301.25;;;5.45;79.29
6208;BME280;3137;51.550;7.060;2024-01-27T10:12:32;103306.19;;;5.56;78.92
6208;BME280;3137;51.550;7.060;2024-01-27T10:14:59;103305.94;;;5.62;78.72
6208;BME280;3137;51.550;7.060;2024-01-27T10:17:25;103297.41;;;5.77;78.45
6208;BME280;3137;51.550;7.060;2024-01-27T10:19:59;103301.50;;;5.85;77.28
6208;BME280;3137;51.550;7.060;2024-01-27T10:22:27;103300.38;;;5.92;77.39
6208;BME280;3137;51.550;7.060;2024-01-27T10:24:54;103297.38;;;6.02;77.22
6208;BME280;3137;51.550;7.060;2024-01-27T10:27:21;103301.94;;;5.98;76.28
6208;BME280;3137;51.550;7.060;2024-01-27T10:29:52;103305.16;;;6.06;76.73
6208;BME280;3137;51.550;7.060;2024-01-27T10:32:20;103314.84;;;6.07;76.51
6208;BME280;3137;51.550;7.060;2024-01-27T10:34:46;103323.81;;;6.05;76.15
6208;BME280;3137;51.550;7.060;2024-01-27T10:37:13;103317.94;;;5.96;76.68
6208;BME280;3137;51.550;7.060;2024-01-27T10:39:40;103320.84;;;6.12;77.01
6208;BME280;3137;51.550;7.060;2024-01-27T10:42:08;103316.41;;;6.13;75.78
6208;BME280;3137;51.550;7.060;2024-01-27T10:44:37;103312.97;;;5.87;76.19
6208;BME280;3137;51.550;7.060;2024-01-27T10:47:08;103312.97;;;5.87;77.05
6208;BME280;3137;51.550;7.060;2024-01-27T10:49:38;103306.38;;;5.97;77.41
6208;BME280;3137;51.550;7.060;2024-01-27T10:52:11;103294.81;;;5.98;77.42
6208;BME280;3137;51.550;7.060;2024-01-27T10:54:40;103295.25;;;5.88;75.67
6208;BME280;3137;51.550;7.060;2024-01-27T10:57:07;103309.97;;;5.96;76.92
6208;BME280;3137;51.550;7.060;2024-01-27T10:59:35;103302.72;;;6.00;77.74
6208;BME280;3137;51.550;7.060;2024-01-27T11:02:03;103302.56;;;6.05;76.75
6208;BME280;3137;51.550;7.060;2024-01-27T11:04:31;103309.09;;;5.96;76.71
6208;BME280;3137;51.550;7.060;2024-01-27T11:07:02;103307.81;;;6.06;77.23
6208;BME280;3137;51.550;7.060;2024-01-27T11:09:29;103306.03;;;6.07;76.74
6208;BME280;3137;51.550;7.060;2024-01-27T11:11:57;103309.34;;;6.12;76.96
6208;BME280;3137;51.550;7.060;2024-01-27T11:14:23;103300.81;;;6.04;75.82
6208;BME280;3137;51.550;7.060;2024-01-27T11:16:55;103301.22;;;6.16;76.41
6208;BME280;3137;51.550;7.060;2024-01-27T11:19:22;103312.00;;;6.12;75.25
6208;BME280;3137;51.550;7.060;2024-01-27T11:22:07;103310.91;;;6.17;75.38
6208;BME280;3137;51.550;7.060;2024-01-27T11:24:34;103318.25;;;6.32;76.32
6208;BME280;3137;51.550;7.060;2024-01-27T11:27:05;103319.94;;;6.35;75.59
6208;BME280;3137;51.550;7.060;2024-01-27T11:29:32;103318.09;;;6.37;76.00
6208;BME280;3137;51.550;7.060;2024-01-27T11:32:01;103317.16;;;6.38;73.18
6208;BME280;3137;51.550;7.060;2024-01-27T11:34:41;103313.47;;;6.42;73.52
6208;BME280;3137;51.550;7.060;2024-01-27T11:37:15;103314.19;;;6.46;74.78
6208;BME280;3137;51.550;7.060;2024-01-27T11:39:41;103313.44;;;6.64;74.05
6208;BME280;3137;51.550;7.060;2024-01-27T11:42:10;103317.91;;;6.41;73.84
6208;BME280;3137;51.550;7.060;2024-01-27T11:44:41;103311.53;;;6.46;74.34
6208;BME280;3137;51.550;7.060;2024-01-27T11:47:18;103315.50;;;6.35;72.94
6208;BME280;3137;51.550;7.060;2024-01-27T11:49:52;103310.97;;;6.37;74.05
6208;BME280;3137;51.550;7.060;2024-01-27T11:52:24;103301.16;;;6.39;74.11
6208;BME280;3137;51.550;7.060;2024-01-27T11:57:21;103297.00;;;6.54;73.55
6208;BME280;3137;51.550;7.060;2024-01-27T11:59:48;103290.91;;;6.52;73.46
6208;BME280;3137;51.550;7.060;2024-01-27T12:02:15;103298.63;;;6.58;73.57
6208;BME280;3137;51.550;7.060;2024-01-27T12:04:41;103296.81;;;6.59;73.40
6208;BME280;3137;51.550;7.060;2024-01-27T12:07:08;103288.75;;;6.62;72.92
6208;BME280;3137;51.550;7.060;2024-01-27T12:09:36;103287.78;;;6.63;72.68
6208;BME280;3137;51.550;7.060;2024-01-27T12:12:08;103291.13;;;6.68;74.08
6208;BME280;3137;51.550;7.060;2024-01-27T12:14:53;103295.88;;;6.81;73.76
6208;BME280;3137;51.550;7.060;2024-01-27T12:17:20;103305.84;;;6.97;72.29
6208;BME280;3137;51.550;7.060;2024-01-27T12:19:50;103301.22;;;7.02;71.93
6208;BME280;3137;51.550;7.060;2024-01-27T12:22:25;103297.97;;;6.95;71.55
6208;BME280;3137;51.550;7.060;2024-01-27T12:24:55;103303.72;;;7.05;71.41
6208;BME280;3137;51.550;7.060;2024-01-27T12:27:22;103304.53;;;7.07;71.47
6208;BME280;3137;51.550;7.060;2024-01-27T12:29:49;103303.72;;;7.05;71.58
6208;BME280;3137;51.550;7.060;2024-01-27T12:32:17;103300.16;;;7.06;69.92
6208;BME280;3137;51.550;7.060;2024-01-27T12:34:44;103295.69;;;7.06;69.57
6208;BME280;3137;51.550;7.060;2024-01-27T12:37:14;103281.53;;;7.06;68.74
6208;BME280;3137;51.550;7.060;2024-01-27T12:39:44;103284.03;;;7.09;69.83
6208;BME280;3137;51.550;7.060;2024-01-27T12:42:11;103282.44;;;7.05;68.79
6208;BME280;3137;51.550;7.060;2024-01-27T12:44:39;103288.31;;;7.13;69.92
6208;BME280;3137;51.550;7.060;2024-01-27T12:47:05;103280.19;;;7.36;69.71
6208;BME280;3137;51.550;7.060;2024-01-27T12:49:32;103285.31;;;7.41;68.96
6208;BME280;3137;51.550;7.060;2024-01-27T12:51:59;103289.03;;;7.37;68.75
6208;BME280;3137;51.550;7.060;2024-01-27T12:54:25;103290.81;;;7.36;68.49
6208;BME280;3137;51.550;7.060;2024-01-27T12:56:52;103299.06;;;7.30;69.11
6208;BME280;3137;51.550;7.060;2024-01-27T12:59:20;103295.13;;;7.39;68.60
6208;BME280;3137;51.550;7.060;2024-01-27T13:01:47;103296.19;;;7.34;67.66
6208;BME280;3137;51.550;7.060;2024-01-27T13:04:13;103300.06;;;7.48;69.49
6208;BME280;3137;51.550;7.060;2024-01-27T13:06:41;103294.72;;;7.48;68.26
6208;BME280;3137;51.550;7.060;2024-01-27T13:09:08;103285.50;;;7.36;67.94
6208;BME280;3137;51.550;7.060;2024-01-27T13:11:38;103290.97;;;7.33;68.21
6208;BME280;3137;51.550;7.060;2024-01-27T13:14:05;103281.09;;;7.35;69.13
6208;BME280;3137;51.550;7.060;2024-01-27T13:16:32;103273.31;;;7.51;69.29
6208;BME280;3137;51.550;7.060;2024-01-27T13:18:59;103270.66;;;7.51;68.17
6208;BME280;3137;51.550;7.060;2024-01-27T13:21:25;103266.72;;;7.39;67.68
6208;BME280;3137;51.550;7.060;2024-01-27T13:23:52;103270.88;;;7.46;68.45